sensor_id;sensor_type;location;lat;lon;timestamp;P1;durP1;ratioP1;P2;durP2;ratioP2
72584;SDS011;60618;40.084;32.908;2023-04-16T00:01:01;16.20;;;5.00;;
72584;SDS011;60618;40.084;32.908;2023-04-16T00:03:28;18.63;;;5.05;;
72584;SDS011;60618;40.084;32.908;2023-04-16T00:05:55;12.20;;;4.53;;
72584;SDS011;60618;40.084;32.908;2023-04-16T00:08:22;16.70;;;5.82;;
72584;SDS011;60618;40.084;32.908;2023-04-16T00:10:50;15.68;;;7.18;;
72584;SDS011;60618;40.084;32.908;2023-04-16T00:13:18;26.00;;;14.33;;
72584;SDS011;60618;40.084;32.908;2023-04-16T00:15:45;12.60;;;6.38;;
72584;SDS011;60618;40.084;32.908;2023-04-16T00:18:12;18.85;;;10.00;;
72584;SDS011;60618;40.084;32.908;2023-04-16T00:20:39;13.13;;;6.78;;
72584;SDS011;60618;40.084;32.908;2023-04-16T00:23:06;12.00;;;6.50;;
72584;SDS011;60618;40.084;32.908;2023-04-16T00:25:33;14.60;;;7.50;;
72584;SDS011;60618;40.084;32.908;2023-04-16T00:28:00;10.98;;;6.13;;
72584;SDS011;60618;40.084;32.908;2023-04-16T00:30:26;18.23;;;11.68;;
72584;SDS011;60618;40.084;32.908;2023-04-16T00:32:53;13.90;;;7.65;;
72584;SDS011;60618;40.084;32.908;2023-04-16T00:35:20;13.65;;;7.00;;
72584;SDS011;60618;40.084;32.908;2023-04-16T00:37:47;12.80;;;6.37;;
72584;SDS011;60618;40.084;32.908;2023-04-16T00:40:14;14.23;;;6.93;;
72584;SDS011;60618;40.084;32.908;2023-04-16T00:42:42;14.95;;;7.32;;
72584;SDS011;60618;40.084;32.908;2023-04-16T00:45:09;13.70;;;7.35;;
72584;SDS011;60618;40.084;32.908;2023-04-16T00:47:37;14.40;;;6.88;;
72584;SDS011;60618;40.084;32.908;2023-04-16T00:50:04;11.67;;;6.67;;
72584;SDS011;60618;40.084;32.908;2023-04-16T00:52:31;11.63;;;6.95;;
72584;SDS011;60618;40.084;32.908;2023-04-16T00:54:59;16.05;;;9.02;;
72584;SDS011;60618;40.084;32.908;2023-04-16T00:57:27;16.55;;;7.78;;
72584;SDS011;60618;40.084;32.908;2023-04-16T00:59:54;15.10;;;7.60;;
72584;SDS011;60618;40.084;32.908;2023-04-16T01:02:21;14.40;;;7.57;;
72584;SDS011;60618;40.084;32.908;2023-04-16T01:04:49;14.98;;;7.05;;
72584;SDS011;60618;40.084;32.908;2023-04-16T01:07:16;18.13;;;9.15;;
72584;SDS011;60618;40.084;32.908;2023-04-16T01:09:44;19.60;;;9.60;;
72584;SDS011;60618;40.084;32.908;2023-04-16T01:12:10;15.57;;;7.97;;
72584;SDS011;60618;40.084;32.908;2023-04-16T01:14:37;16.27;;;8.20;;
72584;SDS011;60618;40.084;32.908;2023-04-16T01:17:04;20.13;;;9.32;;
72584;SDS011;60618;40.084;32.908;2023-04-16T01:19:31;16.65;;;9.00;;
72584;SDS011;60618;40.084;32.908;2023-04-16T01:21:58;18.45;;;9.25;;
72584;SDS011;60618;40.084;32.908;2023-04-16T01:24:25;15.85;;;8.57;;
72584;SDS011;60618;40.084;32.908;2023-04-16T01:26:52;14.93;;;8.63;;
72584;SDS011;60618;40.084;32.908;2023-04-16T01:29:19;17.95;;;10.05;;
72584;SDS011;60618;40.084;32.908;2023-04-16T01:31:46;35.83;;;22.67;;
72584;SDS011;60618;40.084;32.908;2023-04-16T01:34:13;34.05;;;20.05;;
72584;SDS011;60618;40.084;32.908;2023-04-16T01:36:43;42.50;;;24.17;;
72584;SDS011;60618;40.084;32.908;2023-04-16T01:39:10;17.23;;;9.97;;
72584;SDS011;60618;40.084;32.908;2023-04-16T01:41:37;23.05;;;12.65;;
72584;SDS011;60618;40.084;32.908;2023-04-16T01:44:04;17.08;;;9.02;;
72584;SDS011;60618;40.084;32.908;2023-04-16T01:46:32;20.98;;;11.00;;
72584;SDS011;60618;40.084;32.908;2023-04-16T01:49:00;22.88;;;12.32;;
72584;SDS011;60618;40.084;32.908;2023-04-16T01:51:28;24.53;;;14.70;;
72584;SDS011;60618;40.084;32.908;2023-04-16T01:53:55;17.90;;;9.90;;
72584;SDS011;60618;40.084;32.908;2023-04-16T01:56:22;16.23;;;8.75;;
72584;SDS011;60618;40.084;32.908;2023-04-16T01:58:49;14.98;;;7.63;;
72584;SDS011;60618;40.084;32.908;2023-04-16T02:01:16;19.85;;;10.73;;
72584;SDS011;60618;40.084;32.908;2023-04-16T02:03:43;16.23;;;8.10;;
72584;SDS011;60618;40.084;32.908;2023-04-16T02:06:11;15.52;;;8.32;;
72584;SDS011;60618;40.084;32.908;2023-04-16T02:08:38;17.90;;;8.55;;
72584;SDS011;60618;40.084;32.908;2023-04-16T02:11:05;16.10;;;8.93;;
72584;SDS011;60618;40.084;32.908;2023-04-16T02:13:31;18.83;;;9.77;;
72584;SDS011;60618;40.084;32.908;2023-04-16T02:15:59;23.63;;;10.77;;
72584;SDS011;60618;40.084;32.908;2023-04-16T02:18:26;20.10;;;10.90;;
72584;SDS011;60618;40.084;32.908;2023-04-16T02:20:53;17.08;;;8.93;;
72584;SDS011;60618;40.084;32.908;2023-04-16T02:23:21;16.70;;;8.38;;
72584;SDS011;60618;40.084;32.908;2023-04-16T02:25:48;15.07;;;8.20;;
72584;SDS011;60618;40.084;32.908;2023-04-16T02:28:15;20.77;;;8.90;;
72584;SDS011;60618;40.084;32.908;2023-04-16T02:30:43;23.85;;;10.48;;
72584;SDS011;60618;40.084;32.908;2023-04-16T02:33:10;22.50;;;11.50;;
72584;SDS011;60618;40.084;32.908;2023-04-16T02:35:38;18.63;;;9.88;;
72584;SDS011;60618;40.084;32.908;2023-04-16T02:38:06;20.13;;;10.65;;
72584;SDS011;60618;40.084;32.908;2023-04-16T02:40:33;16.50;;;8.17;;
72584;SDS011;60618;40.084;32.908;2023-04-16T02:43:01;15.43;;;8.10;;
72584;SDS011;60618;40.084;32.908;2023-04-16T02:45:28;15.85;;;8.00;;
72584;SDS011;60618;40.084;32.908;2023-04-16T02:47:55;14.00;;;7.57;;
72584;SDS011;60618;40.084;32.908;2023-04-16T02:50:22;10.88;;;5.15;;
72584;SDS011;60618;40.084;32.908;2023-04-16T02:52:49;10.67;;;5.30;;
72584;SDS011;60618;40.084;32.908;2023-04-16T02:55:16;13.50;;;6.03;;
72584;SDS011;60618;40.084;32.908;2023-04-16T02:57:43;14.93;;;7.15;;
72584;SDS011;60618;40.084;32.908;2023-04-16T03:00:10;18.35;;;9.77;;
72584;SDS011;60618;40.084;32.908;2023-04-16T03:02:37;19.80;;;9.95;;
72584;SDS011;60618;40.084;32.908;2023-04-16T03:05:04;19.23;;;10.10;;
72584;SDS011;60618;40.084;32.908;2023-04-16T03:07:31;16.98;;;8.50;;
72584;SDS011;60618;40.084;32.908;2023-04-16T03:09:58;15.68;;;8.27;;
72584;SDS011;60618;40.084;32.908;2023-04-16T03:12:25;16.17;;;8.27;;
72584;SDS011;60618;40.084;32.908;2023-04-16T03:14:52;20.63;;;8.40;;
72584;SDS011;60618;40.084;32.908;2023-04-16T03:17:19;20.73;;;11.17;;
72584;SDS011;60618;40.084;32.908;2023-04-16T03:19:46;25.90;;;10.60;;
72584;SDS011;60618;40.084;32.908;2023-04-16T03:22:13;25.52;;;11.43;;
72584;SDS011;60618;40.084;32.908;2023-04-16T03:24:40;20.02;;;9.00;;
72584;SDS011;60618;40.084;32.908;2023-04-16T03:27:07;19.05;;;8.93;;
72584;SDS011;60618;40.084;32.908;2023-04-16T03:29:37;21.27;;;10.50;;
72584;SDS011;60618;40.084;32.908;2023-04-16T03:32:03;22.95;;;12.30;;
72584;SDS011;60618;40.084;32.908;2023-04-16T03:34:30;19.60;;;10.07;;
72584;SDS011;60618;40.084;32.908;2023-04-16T03:36:57;19.98;;;10.02;;
72584;SDS011;60618;40.084;32.908;2023-04-16T03:39:24;16.95;;;8.65;;
72584;SDS011;60618;40.084;32.908;2023-04-16T03:41:51;15.90;;;7.93;;
72584;SDS011;60618;40.084;32.908;2023-04-16T03:44:18;20.00;;;10.10;;
72584;SDS011;60618;40.084;32.908;2023-04-16T03:46:45;18.52;;;9.90;;
72584;SDS011;60618;40.084;32.908;2023-04-16T03:49:12;21.77;;;11.07;;
72584;SDS011;60618;40.084;32.908;2023-04-16T03:51:39;22.40;;;10.73;;
72584;SDS011;60618;40.084;32.908;2023-04-16T03:54:06;17.33;;;8.20;;
72584;SDS011;60618;40.084;32.908;2023-04-16T03:56:32;15.20;;;9.10;;
72584;SDS011;60618;40.084;32.908;2023-04-16T03:58:59;14.80;;;7.97;;
72584;SDS011;60618;40.084;32.908;2023-04-16T04:01:26;13.63;;;7.50;;
72584;SDS011;60618;40.084;32.908;2023-04-16T04:03:53;14.40;;;6.90;;
72584;SDS011;60618;40.084;32.908;2023-04-16T04:06:20;14.80;;;7.40;;
72584;SDS011;60618;40.084;32.908;2023-04-16T04:08:47;16.30;;;8.27;;
72584;SDS011;60618;40.084;32.908;2023-04-16T04:11:14;16.65;;;8.63;;
72584;SDS011;60618;40.084;32.908;2023-04-16T04:13:41;17.30;;;9.23;;
72584;SDS011;60618;40.084;32.908;2023-04-16T04:16:08;19.98;;;10.38;;
72584;SDS011;60618;40.084;32.908;2023-04-16T04:18:35;14.10;;;7.37;;
72584;SDS011;60618;40.084;32.908;2023-04-16T04:21:07;16.58;;;7.78;;
72584;SDS011;60618;40.084;32.908;2023-04-16T04:23:35;19.48;;;8.55;;
72584;SDS011;60618;40.084;32.908;2023-04-16T04:26:02;19.83;;;9.55;;
72584;SDS011;60618;40.084;32.908;2023-04-16T04:28:30;18.90;;;10.45;;
72584;SDS011;60618;40.084;32.908;2023-04-16T04:30:57;20.03;;;11.07;;
72584;SDS011;60618;40.084;32.908;2023-04-16T04:33:25;23.13;;;11.32;;
72584;SDS011;60618;40.084;32.908;2023-04-16T04:35:53;18.50;;;10.60;;
72584;SDS011;60618;40.084;32.908;2023-04-16T04:38:20;16.38;;;8.30;;
72584;SDS011;60618;40.084;32.908;2023-04-16T04:40:47;21.75;;;10.38;;
72584;SDS011;60618;40.084;32.908;2023-04-16T04:43:14;16.97;;;9.50;;
72584;SDS011;60618;40.084;32.908;2023-04-16T04:45:41;16.67;;;8.63;;
72584;SDS011;60618;40.084;32.908;2023-04-16T04:48:08;20.23;;;10.05;;
72584;SDS011;60618;40.084;32.908;2023-04-16T04:50:35;21.63;;;10.63;;
72584;SDS011;60618;40.084;32.908;2023-04-16T04:53:02;18.35;;;11.13;;
72584;SDS011;60618;40.084;32.908;2023-04-16T04:55:29;19.33;;;10.20;;
72584;SDS011;60618;40.084;32.908;2023-04-16T04:57:56;21.10;;;11.00;;
72584;SDS011;60618;40.084;32.908;2023-04-16T05:00:23;20.88;;;11.13;;
72584;SDS011;60618;40.084;32.908;2023-04-16T05:02:50;21.33;;;11.43;;
72584;SDS011;60618;40.084;32.908;2023-04-16T05:05:17;22.85;;;11.73;;
72584;SDS011;60618;40.084;32.908;2023-04-16T05:07:44;21.83;;;11.60;;
72584;SDS011;60618;40.084;32.908;2023-04-16T05:10:11;19.45;;;10.65;;
72584;SDS011;60618;40.084;32.908;2023-04-16T05:12:38;19.65;;;10.90;;
72584;SDS011;60618;40.084;32.908;2023-04-16T05:15:05;20.52;;;11.73;;
72584;SDS011;60618;40.084;32.908;2023-04-16T05:17:33;23.30;;;12.18;;
72584;SDS011;60618;40.084;32.908;2023-04-16T05:20:00;28.57;;;13.30;;
72584;SDS011;60618;40.084;32.908;2023-04-16T05:22:26;26.13;;;13.15;;
72584;SDS011;60618;40.084;32.908;2023-04-16T05:24:53;24.63;;;13.25;;
72584;SDS011;60618;40.084;32.908;2023-04-16T05:27:20;31.48;;;15.50;;
72584;SDS011;60618;40.084;32.908;2023-04-16T05:29:47;44.42;;;18.92;;
72584;SDS011;60618;40.084;32.908;2023-04-16T05:32:14;57.90;;;23.47;;
72584;SDS011;60618;40.084;32.908;2023-04-16T05:34:41;50.42;;;21.98;;
72584;SDS011;60618;40.084;32.908;2023-04-16T05:37:08;47.30;;;21.95;;
72584;SDS011;60618;40.084;32.908;2023-04-16T05:39:35;31.40;;;12.93;;
72584;SDS011;60618;40.084;32.908;2023-04-16T05:42:02;27.90;;;11.68;;
72584;SDS011;60618;40.084;32.908;2023-04-16T05:44:29;23.43;;;10.57;;
72584;SDS011;60618;40.084;32.908;2023-04-16T05:46:56;22.48;;;9.77;;
72584;SDS011;60618;40.084;32.908;2023-04-16T05:49:23;22.38;;;10.73;;
72584;SDS011;60618;40.084;32.908;2023-04-16T05:51:50;18.23;;;9.63;;
72584;SDS011;60618;40.084;32.908;2023-04-16T05:54:16;22.05;;;10.65;;
72584;SDS011;60618;40.084;32.908;2023-04-16T05:56:43;25.63;;;10.57;;
72584;SDS011;60618;40.084;32.908;2023-04-16T05:59:10;23.65;;;10.40;;
72584;SDS011;60618;40.084;32.908;2023-04-16T06:01:37;21.58;;;9.80;;
72584;SDS011;60618;40.084;32.908;2023-04-16T06:04:04;17.45;;;8.50;;
72584;SDS011;60618;40.084;32.908;2023-04-16T06:06:31;13.32;;;6.32;;
72584;SDS011;60618;40.084;32.908;2023-04-16T06:08:58;12.33;;;5.93;;
72584;SDS011;60618;40.084;32.908;2023-04-16T06:11:25;9.73;;;4.75;;
72584;SDS011;60618;40.084;32.908;2023-04-16T06:13:52;11.20;;;5.07;;
72584;SDS011;60618;40.084;32.908;2023-04-16T06:16:19;13.85;;;5.95;;
72584;SDS011;60618;40.084;32.908;2023-04-16T06:18:46;9.65;;;4.78;;
72584;SDS011;60618;40.084;32.908;2023-04-16T06:21:13;11.83;;;6.20;;
72584;SDS011;60618;40.084;32.908;2023-04-16T06:23:41;13.43;;;6.18;;
72584;SDS011;60618;40.084;32.908;2023-04-16T06:26:08;15.95;;;7.15;;
72584;SDS011;60618;40.084;32.908;2023-04-16T06:28:35;14.43;;;6.40;;
72584;SDS011;60618;40.084;32.908;2023-04-16T06:31:04;12.93;;;5.68;;
72584;SDS011;60618;40.084;32.908;2023-04-16T06:33:31;12.90;;;6.40;;
72584;SDS011;60618;40.084;32.908;2023-04-16T06:35:58;12.45;;;7.10;;
72584;SDS011;60618;40.084;32.908;2023-04-16T06:38:25;12.75;;;6.35;;
72584;SDS011;60618;40.084;32.908;2023-04-16T06:40:52;11.57;;;5.22;;
72584;SDS011;60618;40.084;32.908;2023-04-16T06:43:19;13.73;;;6.32;;
72584;SDS011;60618;40.084;32.908;2023-04-16T06:45:46;12.07;;;6.07;;
72584;SDS011;60618;40.084;32.908;2023-04-16T06:48:13;8.70;;;4.50;;
72584;SDS011;60618;40.084;32.908;2023-04-16T06:50:40;8.75;;;4.70;;
72584;SDS011;60618;40.084;32.908;2023-04-16T06:53:07;10.15;;;5.13;;
72584;SDS011;60618;40.084;32.908;2023-04-16T06:55:34;9.13;;;3.97;;
72584;SDS011;60618;40.084;32.908;2023-04-16T06:58:01;8.10;;;4.03;;
72584;SDS011;60618;40.084;32.908;2023-04-16T07:00:28;11.10;;;4.90;;
72584;SDS011;60618;40.084;32.908;2023-04-16T07:02:55;9.13;;;3.90;;
72584;SDS011;60618;40.084;32.908;2023-04-16T07:05:23;9.20;;;3.70;;
72584;SDS011;60618;40.084;32.908;2023-04-16T07:07:51;7.80;;;3.90;;
72584;SDS011;60618;40.084;32.908;2023-04-16T07:10:17;9.43;;;4.10;;
72584;SDS011;60618;40.084;32.908;2023-04-16T07:12:44;6.80;;;3.30;;
72584;SDS011;60618;40.084;32.908;2023-04-16T07:15:11;13.43;;;4.57;;
72584;SDS011;60618;40.084;32.908;2023-04-16T07:17:38;9.93;;;3.65;;
72584;SDS011;60618;40.084;32.908;2023-04-16T07:20:05;6.07;;;2.90;;
72584;SDS011;60618;40.084;32.908;2023-04-16T07:22:34;8.60;;;3.77;;
72584;SDS011;60618;40.084;32.908;2023-04-16T07:25:06;9.23;;;3.85;;
72584;SDS011;60618;40.084;32.908;2023-04-16T07:27:47;8.93;;;3.45;;
72584;SDS011;60618;40.084;32.908;2023-04-16T07:30:14;7.20;;;3.25;;
72584;SDS011;60618;40.084;32.908;2023-04-16T07:32:41;8.80;;;3.35;;
72584;SDS011;60618;40.084;32.908;2023-04-16T07:35:08;6.20;;;3.23;;
72584;SDS011;60618;40.084;32.908;2023-04-16T07:37:35;10.23;;;3.70;;
72584;SDS011;60618;40.084;32.908;2023-04-16T07:40:02;7.75;;;3.50;;
72584;SDS011;60618;40.084;32.908;2023-04-16T07:42:29;11.60;;;4.95;;
72584;SDS011;60618;40.084;32.908;2023-04-16T07:44:56;6.00;;;3.00;;
72584;SDS011;60618;40.084;32.908;2023-04-16T07:47:23;9.30;;;3.97;;
72584;SDS011;60618;40.084;32.908;2023-04-16T07:49:50;7.65;;;3.10;;
72584;SDS011;60618;40.084;32.908;2023-04-16T07:52:17;6.28;;;3.03;;
72584;SDS011;60618;40.084;32.908;2023-04-16T07:54:44;5.70;;;2.60;;
72584;SDS011;60618;40.084;32.908;2023-04-16T07:57:11;7.30;;;2.30;;
72584;SDS011;60618;40.084;32.908;2023-04-16T07:59:38;6.03;;;2.70;;
72584;SDS011;60618;40.084;32.908;2023-04-16T08:02:05;5.28;;;2.30;;
72584;SDS011;60618;40.084;32.908;2023-04-16T08:04:34;7.10;;;2.47;;
72584;SDS011;60618;40.084;32.908;2023-04-16T08:07:01;11.45;;;3.80;;
72584;SDS011;60618;40.084;32.908;2023-04-16T08:09:28;6.30;;;2.88;;
72584;SDS011;60618;40.084;32.908;2023-04-16T08:12:02;7.30;;;2.80;;
72584;SDS011;60618;40.084;32.908;2023-04-16T08:14:29;9.35;;;2.90;;
72584;SDS011;60618;40.084;32.908;2023-04-16T08:16:56;6.53;;;2.70;;
72584;SDS011;60618;40.084;32.908;2023-04-16T08:19:23;6.93;;;2.65;;
72584;SDS011;60618;40.084;32.908;2023-04-16T08:21:50;6.50;;;2.08;;
72584;SDS011;60618;40.084;32.908;2023-04-16T08:24:17;3.93;;;1.70;;
72584;SDS011;60618;40.084;32.908;2023-04-16T08:26:44;4.38;;;1.60;;
72584;SDS011;60618;40.084;32.908;2023-04-16T08:29:10;5.80;;;1.50;;
72584;SDS011;60618;40.084;32.908;2023-04-16T08:31:38;6.30;;;1.85;;
72584;SDS011;60618;40.084;32.908;2023-04-16T08:34:05;5.35;;;1.50;;
72584;SDS011;60618;40.084;32.908;2023-04-16T08:36:32;6.17;;;1.40;;
72584;SDS011;60618;40.084;32.908;2023-04-16T08:38:59;6.00;;;1.40;;
72584;SDS011;60618;40.084;32.908;2023-04-16T08:41:26;5.22;;;1.50;;
72584;SDS011;60618;40.084;32.908;2023-04-16T08:43:56;4.68;;;1.67;;
72584;SDS011;60618;40.084;32.908;2023-04-16T08:46:27;5.93;;;1.80;;
72584;SDS011;60618;40.084;32.908;2023-04-16T08:48:57;4.00;;;1.43;;
72584;SDS011;60618;40.084;32.908;2023-04-16T08:51:27;4.75;;;1.60;;
72584;SDS011;60618;40.084;32.908;2023-04-16T08:53:58;5.35;;;1.80;;
72584;SDS011;60618;40.084;32.908;2023-04-16T08:56:30;6.22;;;1.80;;
72584;SDS011;60618;40.084;32.908;2023-04-16T08:59:01;7.43;;;1.75;;
72584;SDS011;60618;40.084;32.908;2023-04-16T09:01:28;4.83;;;1.60;;
72584;SDS011;60618;40.084;32.908;2023-04-16T09:03:56;4.80;;;1.50;;
72584;SDS011;60618;40.084;32.908;2023-04-16T09:06:24;4.35;;;1.67;;
72584;SDS011;60618;40.084;32.908;2023-04-16T09:08:53;5.90;;;1.70;;
72584;SDS011;60618;40.084;32.908;2023-04-16T09:11:20;4.47;;;1.83;;
72584;SDS011;60618;40.084;32.908;2023-04-16T09:13:47;4.40;;;1.70;;
72584;SDS011;60618;40.084;32.908;2023-04-16T09:16:14;4.40;;;1.77;;
72584;SDS011;60618;40.084;32.908;2023-04-16T09:18:41;5.15;;;1.85;;
72584;SDS011;60618;40.084;32.908;2023-04-16T09:21:08;4.80;;;1.75;;
72584;SDS011;60618;40.084;32.908;2023-04-16T09:23:36;4.32;;;1.70;;
72584;SDS011;60618;40.084;32.908;2023-04-16T09:26:03;4.60;;;1.80;;
72584;SDS011;60618;40.084;32.908;2023-04-16T09:28:38;4.60;;;1.60;;
72584;SDS011;60618;40.084;32.908;2023-04-16T09:31:10;6.63;;;2.35;;
72584;SDS011;60618;40.084;32.908;2023-04-16T09:33:59;5.93;;;2.20;;
72584;SDS011;60618;40.084;32.908;2023-04-16T09:36:28;5.95;;;2.40;;
72584;SDS011;60618;40.084;32.908;2023-04-16T09:38:55;8.13;;;2.73;;
72584;SDS011;60618;40.084;32.908;2023-04-16T09:41:23;6.10;;;2.42;;
72584;SDS011;60618;40.084;32.908;2023-04-16T09:43:58;9.40;;;2.58;;
72584;SDS011;60618;40.084;32.908;2023-04-16T09:46:29;6.05;;;2.20;;
72584;SDS011;60618;40.084;32.908;2023-04-16T09:48:57;4.80;;;2.22;;
72584;SDS011;60618;40.084;32.908;2023-04-16T09:51:35;5.57;;;2.30;;
72584;SDS011;60618;40.084;32.908;2023-04-16T09:54:03;6.60;;;2.40;;
72584;SDS011;60618;40.084;32.908;2023-04-16T09:56:30;4.85;;;2.08;;
72584;SDS011;60618;40.084;32.908;2023-04-16T09:59:01;4.70;;;2.00;;
72584;SDS011;60618;40.084;32.908;2023-04-16T10:01:28;5.78;;;2.25;;
72584;SDS011;60618;40.084;32.908;2023-04-16T10:03:58;6.97;;;2.10;;
72584;SDS011;60618;40.084;32.908;2023-04-16T10:06:26;5.18;;;1.95;;
72584;SDS011;60618;40.084;32.908;2023-04-16T10:08:55;4.45;;;1.90;;
72584;SDS011;60618;40.084;32.908;2023-04-16T10:11:21;6.15;;;2.10;;
72584;SDS011;60618;40.084;32.908;2023-04-16T10:13:49;10.43;;;2.40;;
72584;SDS011;60618;40.084;32.908;2023-04-16T10:16:16;5.23;;;2.40;;
72584;SDS011;60618;40.084;32.908;2023-04-16T10:18:44;7.82;;;2.30;;
72584;SDS011;60618;40.084;32.908;2023-04-16T10:21:12;5.18;;;2.20;;
72584;SDS011;60618;40.084;32.908;2023-04-16T10:23:39;4.13;;;1.60;;
72584;SDS011;60618;40.084;32.908;2023-04-16T10:26:07;5.40;;;2.17;;
72584;SDS011;60618;40.084;32.908;2023-04-16T10:28:35;5.03;;;1.80;;
72584;SDS011;60618;40.084;32.908;2023-04-16T10:31:03;6.30;;;1.98;;
72584;SDS011;60618;40.084;32.908;2023-04-16T10:33:36;6.20;;;2.30;;
72584;SDS011;60618;40.084;32.908;2023-04-16T10:36:12;5.00;;;2.08;;
72584;SDS011;60618;40.084;32.908;2023-04-16T10:38:43;7.10;;;2.03;;
72584;SDS011;60618;40.084;32.908;2023-04-16T10:41:11;4.80;;;2.10;;
72584;SDS011;60618;40.084;32.908;2023-04-16T10:43:39;4.65;;;1.90;;
72584;SDS011;60618;40.084;32.908;2023-04-16T10:46:24;6.72;;;2.38;;
72584;SDS011;60618;40.084;32.908;2023-04-16T10:48:59;3.88;;;1.92;;
72584;SDS011;60618;40.084;32.908;2023-04-16T10:51:30;5.15;;;2.20;;
72584;SDS011;60618;40.084;32.908;2023-04-16T10:56:35;5.82;;;2.05;;
72584;SDS011;60618;40.084;32.908;2023-04-16T10:59:03;5.93;;;2.20;;
72584;SDS011;60618;40.084;32.908;2023-04-16T11:01:32;5.55;;;2.00;;
72584;SDS011;60618;40.084;32.908;2023-04-16T11:09:59;4.20;;;1.90;;
72584;SDS011;60618;40.084;32.908;2023-04-16T11:12:42;6.63;;;1.88;;
72584;SDS011;60618;40.084;32.908;2023-04-16T11:15:13;4.65;;;2.10;;
72584;SDS011;60618;40.084;32.908;2023-04-16T11:17:42;4.20;;;1.77;;
72584;SDS011;60618;40.084;32.908;2023-04-16T11:20:17;5.77;;;1.70;;
72584;SDS011;60618;40.084;32.908;2023-04-16T11:22:48;5.18;;;1.73;;
72584;SDS011;60618;40.084;32.908;2023-04-16T11:27:47;8.60;;;2.05;;
72584;SDS011;60618;40.084;32.908;2023-04-16T11:30:14;7.40;;;2.10;;
72584;SDS011;60618;40.084;32.908;2023-04-16T11:32:42;9.13;;;2.17;;
72584;SDS011;60618;40.084;32.908;2023-04-16T11:35:16;5.18;;;1.80;;
72584;SDS011;60618;40.084;32.908;2023-04-16T11:37:44;5.15;;;1.83;;
72584;SDS011;60618;40.084;32.908;2023-04-16T11:40:12;5.18;;;1.60;;
72584;SDS011;60618;40.084;32.908;2023-04-16T11:42:39;5.43;;;1.90;;
72584;SDS011;60618;40.084;32.908;2023-04-16T11:45:08;7.80;;;2.00;;
72584;SDS011;60618;40.084;32.908;2023-04-16T11:50:20;6.68;;;1.85;;
72584;SDS011;60618;40.084;32.908;2023-04-16T11:52:49;4.15;;;1.80;;
72584;SDS011;60618;40.084;32.908;2023-04-16T11:55:16;4.03;;;1.65;;
72584;SDS011;60618;40.084;32.908;2023-04-16T11:57:44;5.20;;;1.60;;
72584;SDS011;60618;40.084;32.908;2023-04-16T12:00:12;4.72;;;1.50;;
72584;SDS011;60618;40.084;32.908;2023-04-16T12:02:40;6.50;;;1.60;;
72584;SDS011;60618;40.084;32.908;2023-04-16T12:05:30;5.32;;;1.40;;
72584;SDS011;60618;40.084;32.908;2023-04-16T12:08:03;3.55;;;0.90;;
72584;SDS011;60618;40.084;32.908;2023-04-16T12:10:32;3.83;;;1.10;;
72584;SDS011;60618;40.084;32.908;2023-04-16T12:13:10;6.18;;;1.58;;
72584;SDS011;60618;40.084;32.908;2023-04-16T12:15:48;5.18;;;1.70;;
72584;SDS011;60618;40.084;32.908;2023-04-16T12:18:16;5.50;;;1.67;;
72584;SDS011;60618;40.084;32.908;2023-04-16T12:20:45;8.55;;;1.10;;
72584;SDS011;60618;40.084;32.908;2023-04-16T12:23:26;4.33;;;1.20;;
72584;SDS011;60618;40.084;32.908;2023-04-16T12:25:55;3.58;;;1.00;;
72584;SDS011;60618;40.084;32.908;2023-04-16T12:28:30;4.15;;;0.90;;
72584;SDS011;60618;40.084;32.908;2023-04-16T12:30:58;3.83;;;0.70;;
72584;SDS011;60618;40.084;32.908;2023-04-16T12:33:26;3.10;;;1.00;;
72584;SDS011;60618;40.084;32.908;2023-04-16T12:35:53;2.87;;;0.97;;
72584;SDS011;60618;40.084;32.908;2023-04-16T12:38:22;4.05;;;1.10;;
72584;SDS011;60618;40.084;32.908;2023-04-16T12:40:50;2.85;;;0.90;;
72584;SDS011;60618;40.084;32.908;2023-04-16T12:43:17;5.40;;;1.60;;
72584;SDS011;60618;40.084;32.908;2023-04-16T12:45:47;8.90;;;2.97;;
72584;SDS011;60618;40.084;32.908;2023-04-16T12:48:13;6.73;;;1.80;;
72584;SDS011;60618;40.084;32.908;2023-04-16T12:50:40;5.45;;;1.73;;
72584;SDS011;60618;40.084;32.908;2023-04-16T12:53:07;4.88;;;1.40;;
72584;SDS011;60618;40.084;32.908;2023-04-16T12:55:34;3.95;;;1.23;;
72584;SDS011;60618;40.084;32.908;2023-04-16T12:58:01;4.13;;;1.10;;
72584;SDS011;60618;40.084;32.908;2023-04-16T13:00:28;4.00;;;1.13;;
72584;SDS011;60618;40.084;32.908;2023-04-16T13:02:55;3.63;;;1.23;;
72584;SDS011;60618;40.084;32.908;2023-04-16T13:05:22;4.03;;;1.00;;
72584;SDS011;60618;40.084;32.908;2023-04-16T13:07:49;5.35;;;1.27;;
72584;SDS011;60618;40.084;32.908;2023-04-16T13:10:19;3.53;;;1.00;;
72584;SDS011;60618;40.084;32.908;2023-04-16T13:12:47;5.57;;;1.43;;
72584;SDS011;60618;40.084;32.908;2023-04-16T13:15:14;5.25;;;1.50;;
72584;SDS011;60618;40.084;32.908;2023-04-16T13:17:41;4.78;;;1.40;;
72584;SDS011;60618;40.084;32.908;2023-04-16T13:20:08;6.63;;;1.48;;
72584;SDS011;60618;40.084;32.908;2023-04-16T13:22:35;3.72;;;1.30;;
72584;SDS011;60618;40.084;32.908;2023-04-16T13:25:03;3.90;;;1.47;;
72584;SDS011;60618;40.084;32.908;2023-04-16T13:27:30;5.10;;;1.50;;
72584;SDS011;60618;40.084;32.908;2023-04-16T13:29:57;4.70;;;1.60;;
72584;SDS011;60618;40.084;32.908;2023-04-16T13:32:24;4.93;;;1.60;;
72584;SDS011;60618;40.084;32.908;2023-04-16T13:34:51;6.22;;;1.70;;
72584;SDS011;60618;40.084;32.908;2023-04-16T13:37:18;6.80;;;2.50;;
72584;SDS011;60618;40.084;32.908;2023-04-16T13:39:45;5.50;;;1.73;;
72584;SDS011;60618;40.084;32.908;2023-04-16T13:42:15;5.82;;;1.77;;
72584;SDS011;60618;40.084;32.908;2023-04-16T13:44:42;5.88;;;1.80;;
72584;SDS011;60618;40.084;32.908;2023-04-16T13:47:09;5.68;;;1.80;;
72584;SDS011;60618;40.084;32.908;2023-04-16T13:49:38;5.00;;;1.70;;
72584;SDS011;60618;40.084;32.908;2023-04-16T13:52:05;8.02;;;2.20;;
72584;SDS011;60618;40.084;32.908;2023-04-16T13:54:32;8.30;;;2.60;;
72584;SDS011;60618;40.084;32.908;2023-04-16T13:56:59;8.10;;;2.30;;
72584;SDS011;60618;40.084;32.908;2023-04-16T13:59:26;5.20;;;1.73;;
72584;SDS011;60618;40.084;32.908;2023-04-16T14:01:53;4.93;;;1.80;;
72584;SDS011;60618;40.084;32.908;2023-04-16T14:04:20;4.55;;;1.45;;
72584;SDS011;60618;40.084;32.908;2023-04-16T14:06:48;5.65;;;1.70;;
72584;SDS011;60618;40.084;32.908;2023-04-16T14:09:15;6.90;;;2.30;;
72584;SDS011;60618;40.084;32.908;2023-04-16T14:11:42;4.20;;;1.70;;
72584;SDS011;60618;40.084;32.908;2023-04-16T14:14:09;9.93;;;3.57;;
72584;SDS011;60618;40.084;32.908;2023-04-16T14:16:36;7.15;;;2.50;;
72584;SDS011;60618;40.084;32.908;2023-04-16T14:19:03;7.65;;;2.50;;
72584;SDS011;60618;40.084;32.908;2023-04-16T14:21:30;6.38;;;1.88;;
72584;SDS011;60618;40.084;32.908;2023-04-16T14:23:57;5.55;;;2.00;;
72584;SDS011;60618;40.084;32.908;2023-04-16T14:26:23;4.47;;;1.60;;
72584;SDS011;60618;40.084;32.908;2023-04-16T14:28:50;4.65;;;1.45;;
72584;SDS011;60618;40.084;32.908;2023-04-16T14:31:17;5.78;;;1.98;;
72584;SDS011;60618;40.084;32.908;2023-04-16T14:33:44;5.13;;;1.42;;
72584;SDS011;60618;40.084;32.908;2023-04-16T14:36:11;4.78;;;2.08;;
72584;SDS011;60618;40.084;32.908;2023-04-16T14:38:38;5.87;;;1.50;;
72584;SDS011;60618;40.084;32.908;2023-04-16T14:41:05;4.38;;;1.52;;
72584;SDS011;60618;40.084;32.908;2023-04-16T14:43:32;5.43;;;1.45;;